Time;durP1;ratioP1;P1;durP2;ratioP2;P2;SDS_P1;SDS_P2;PMS_P1;PMS_P2;Temp;Humidity;BMP_temperature;BMP_pressure;BME280_temperature;BME280_humidity;BME280_pressure;Samples;Min_cycle;Max_cycle;Signal;HPM_P1;HPM_P2
2022/05/31 00:01:55;;;;;;;6.00;5.40;;;;;;;8.84;78.28;101049.17;1771477;81;21026;-91
2022/05/31 00:04:22;;;;;;;8.25;5.40;;;;;;;8.81;78.29;101051.27;1771389;81;21062;-88
2022/05/31 00:06:49;;;;;;;7.67;5.35;;;;;;;8.67;78.29;101031.09;1779329;80;21042;-89
2022/05/31 00:09:17;;;;;;;5.80;5.22;;;;;;;8.74;78.32;101047.94;1769759;79;21631;-88
2022/05/31 00:11:44;;;;;;;8.98;5.45;;;;;;;8.72;78.38;101047.88;1728806;80;21039;-88
2022/05/31 00:14:12;;;;;;;6.42;5.58;;;;;;;8.72;78.41;101049.62;1734144;82;21111;-88
2022/05/31 00:16:39;;;;;;;6.55;5.65;;;;;;;8.75;78.43;101055.00;1741720;81;21090;-90
2022/05/31 00:19:17;;;;;;;7.08;5.42;;;;;;;8.74;78.39;101055.81;1734020;82;21072;-90
2022/05/31 00:22:08;;;;;;;10.00;5.25;;;;;;;8.74;78.40;101060.64;1724156;82;21806;-90
2022/05/31 00:24:41;;;;;;;9.48;5.65;;;;;;;8.70;78.23;101060.05;1745031;81;21056;-88
2022/05/31 00:27:11;;;;;;;7.10;5.40;;;;;;;8.65;78.13;101064.27;1764137;81;21043;-90
2022/05/31 00:29:41;;;;;;;6.87;5.65;;;;;;;8.61;78.23;101058.39;1754699;81;21090;-89
2022/05/31 00:32:11;;;;;;;8.43;5.90;;;;;;;8.59;78.21;101061.38;1726449;81;21064;-89
2022/05/31 00:34:40;;;;;;;9.23;6.35;;;;;;;8.54;78.10;101064.27;1739173;81;21819;-91
2022/05/31 00:37:07;;;;;;;8.00;6.17;;;;;;;8.50;78.19;101065.88;1733145;81;21654;-90
2022/05/31 00:39:38;;;;;;;6.60;5.87;;;;;;;8.47;78.13;101071.42;1750038;81;21086;-90
2022/05/31 00:42:18;;;;;;;9.33;5.67;;;;;;;8.44;78.28;101073.91;1725690;81;21065;-89
2022/05/31 00:44:45;;;;;;;7.92;5.92;;;;;;;8.41;78.23;101073.75;1764455;81;21082;-90
2022/05/31 00:47:23;;;;;;;9.53;6.30;;;;;;;8.35;78.14;101079.27;1723465;81;21757;-91
2022/05/31 00:50:00;;;;;;;6.25;5.65;;;;;;;8.34;78.27;101080.50;1720262;82;21064;-89
2022/05/31 00:52:35;;;;;;;7.22;6.10;;;;;;;8.30;78.19;101089.09;1749442;81;22166;-88
2022/05/31 00:55:24;;;;;;;7.97;5.90;;;;;;;8.22;78.04;101091.41;1732332;82;21821;-88
2022/05/31 00:57:59;;;;;;;7.87;5.50;;;;;;;8.17;78.03;101090.33;1741456;81;21042;-88
2022/05/31 01:03:29;;;;;;;6.03;5.53;;;;;;;8.07;78.16;101090.77;1741286;80;21085;-88
2022/05/31 01:06:21;;;;;;;7.20;5.47;;;;;;;8.01;78.12;101099.28;1721825;83;21089;-90
2022/05/31 01:09:21;;;;;;;7.95;5.92;;;;;;;7.97;78.32;101099.56;1728460;81;21112;-90
2022/05/31 01:12:08;;;;;;;7.35;5.55;;;;;;;7.97;78.52;101096.95;1736030;81;21067;-90
2022/05/31 01:14:35;;;;;;;6.97;5.30;;;;;;;8.00;78.61;101096.62;1748726;81;21770;-87
2022/05/31 01:17:07;;;;;;;8.98;5.30;;;;;;;7.97;78.52;101102.62;1733208;81;21039;-88
2022/05/31 01:22:19;;;;;;;6.42;4.95;;;;;;;7.95;78.65;101101.23;1741983;81;21059;-90
2022/05/31 01:25:31;;;;;;;6.90;5.70;;;;;;;7.93;78.76;101109.88;1742523;82;21043;-90
2022/05/31 01:28:45;;;;;;;6.00;4.72;;;;;;;7.92;78.81;101106.38;1742214;81;21776;-90
2022/05/31 01:31:37;;;;;;;9.43;4.92;;;;;;;7.92;78.90;101103.75;1728837;81;21588;-87
2022/05/31 01:34:12;;;;;;;6.87;5.12;;;;;;;7.91;78.95;101107.19;1729509;82;21067;-87
2022/05/31 01:36:47;;;;;;;7.97;5.15;;;;;;;7.86;78.85;101106.52;1719658;82;21206;-87
2022/05/31 01:39:40;;;;;;;6.80;5.50;;;;;;;7.83;78.89;101115.16;1750736;81;21121;-90
2022/05/31 01:42:40;;;;;;;6.77;5.37;;;;;;;7.82;79.02;101112.47;1730626;82;22537;-90
2022/05/31 01:45:18;;;;;;;7.62;5.45;;;;;;;7.80;79.11;101113.71;1729903;82;21295;-91
2022/05/31 01:47:46;;;;;;;8.83;6.12;;;;;;;7.76;78.95;101115.73;1723918;82;21126;-90
2022/05/31 01:50:18;;;;;;;6.35;5.22;;;;;;;7.71;78.97;101119.45;1710001;82;21058;-90
2022/05/31 01:52:48;;;;;;;7.35;5.33;;;;;;;7.68;79.07;101123.27;1713869;81;21328;-91
2022/05/31 01:55:14;;;;;;;5.40;4.90;;;;;;;7.69;79.18;101126.77;1735077;81;21695;-87
2022/05/31 01:57:58;;;;;;;6.22;5.60;;;;;;;7.75;79.38;101123.09;1741558;81;21600;-90
2022/05/31 02:00:26;;;;;;;5.78;5.17;;;;;;;7.84;79.45;101123.48;1729207;82;21576;-90
2022/05/31 02:02:57;;;;;;;7.22;5.70;;;;;;;7.91;79.40;101127.27;1728509;82;21233;-87
2022/05/31 02:05:24;;;;;;;9.13;6.08;;;;;;;7.99;79.59;101137.65;1709612;83;21079;-90
2022/05/31 02:08:01;;;;;;;7.10;5.50;;;;;;;8.12;79.64;101138.63;1709540;83;21766;-90
2022/05/31 02:10:28;;;;;;;6.42;5.53;;;;;;;8.24;79.76;101133.02;1709033;81;21785;-89
2022/05/31 02:12:55;;;;;;;6.35;5.53;;;;;;;8.33;79.61;101132.08;1766133;80;21074;-90
2022/05/31 02:15:24;;;;;;;7.58;5.60;;;;;;;8.43;79.59;101133.37;1757276;80;21600;-89
2022/05/31 02:17:51;;;;;;;10.18;5.45;;;;;;;8.48;79.51;101131.80;1768243;80;21091;-89
2022/05/31 02:20:18;;;;;;;6.30;5.42;;;;;;;8.53;79.33;101131.57;1765155;80;21761;-87
2022/05/31 02:22:51;;;;;;;9.48;5.05;;;;;;;8.54;79.17;101137.31;1758225;80;21536;-88
2022/05/31 02:25:18;;;;;;;7.50;5.62;;;;;;;8.55;79.10;101134.26;1717574;82;21082;-88
2022/05/31 02:27:46;;;;;;;5.83;5.00;;;;;;;8.55;79.00;101138.20;1759336;80;21053;-87
2022/05/31 02:30:13;;;;;;;5.35;4.65;;;;;;;8.53;78.87;101135.94;1775919;80;21046;-87
2022/05/31 02:33:21;;;;;;;5.75;4.97;;;;;;;8.52;78.91;101143.31;1778468;80;21735;-89
2022/05/31 02:35:49;;;;;;;5.47;4.92;;;;;;;8.50;78.76;101135.41;1782346;80;21567;-87
2022/05/31 02:38:16;;;;;;;10.88;5.40;;;;;;;8.50;78.80;101139.73;1787099;80;21555;-87
2022/05/31 02:40:45;;;;;;;7.62;5.05;;;;;;;8.50;78.79;101146.30;1763227;80;21038;-89
2022/05/31 02:43:12;;;;;;;5.75;4.65;;;;;;;8.54;78.81;101139.05;1787042;80;20983;-89
2022/05/31 02:45:39;;;;;;;7.58;4.92;;;;;;;8.59;78.81;101148.40;1770824;80;22547;-89
2022/05/31 02:48:06;;;;;;;5.60;4.87;;;;;;;8.61;78.73;101138.42;1747534;82;21033;-88
2022/05/31 02:50:43;;;;;;;7.15;4.45;;;;;;;8.65;78.79;101142.98;1770717;80;21094;-89
2022/05/31 02:53:10;;;;;;;5.50;5.00;;;;;;;8.68;78.65;101142.20;1778587;80;21011;-87
2022/05/31 02:55:36;;;;;;;5.47;4.90;;;;;;;8.69;78.57;101146.20;1777874;80;21050;-87
2022/05/31 02:58:03;;;;;;;6.85;4.42;;;;;;;8.69;78.59;101145.28;1747249;82;21190;-90
2022/05/31 03:00:30;;;;;;;12.90;6.33;;;;;;;8.73;78.60;101146.80;1764345;80;21089;-89
2022/05/31 03:02:58;;;;;;;6.33;4.42;;;;;;;8.75;78.62;101145.55;1763502;80;21069;-87
2022/05/31 03:05:25;;;;;;;6.70;4.42;;;;;;;8.78;78.59;101148.27;1773332;80;21193;-89
2022/05/31 03:07:52;;;;;;;5.53;4.62;;;;;;;8.80;78.59;101147.02;1757276;80;21364;-87
2022/05/31 03:10:19;;;;;;;6.40;4.00;;;;;;;8.86;78.63;101145.93;1763003;81;21733;-88
2022/05/31 03:12:49;;;;;;;4.87;4.42;;;;;;;8.88;78.48;101150.85;1763153;80;21551;-89
2022/05/31 03:15:17;;;;;;;6.72;4.67;;;;;;;8.90;78.50;101146.13;1770127;81;21394;-89
2022/05/31 03:17:52;;;;;;;4.87;4.37;;;;;;;8.94;78.48;101142.77;1771084;81;21378;-89
2022/05/31 03:20:33;;;;;;;4.80;4.10;;;;;;;9.01;78.57;101145.23;1764640;81;21042;-88
2022/05/31 03:23:10;;;;;;;4.62;4.10;;;;;;;9.15;78.81;101141.79;1744624;81;22784;-89
2022/05/31 03:25:37;;;;;;;6.62;4.40;;;;;;;9.31;78.89;101145.89;1770457;81;21060;-89
2022/05/31 03:28:36;;;;;;;4.95;4.47;;;;;;;9.56;78.97;101143.71;1726067;82;22168;-89
2022/05/31 03:31:03;;;;;;;9.00;5.37;;;;;;;10.19;80.15;101143.63;1748807;81;21046;-87
2022/05/31 03:33:32;;;;;;;7.85;4.35;;;;;;;11.98;82.15;101137.94;1741142;81;21374;-88
2022/05/31 03:35:58;;;;;;;6.95;4.60;;;;;;;13.68;81.49;101131.97;1707256;83;21772;-88
2022/05/31 03:38:26;;;;;;;4.37;3.95;;;;;;;15.32;80.28;101131.83;1757566;81;21051;-88
2022/05/31 03:40:56;;;;;;;4.80;3.77;;;;;;;16.84;78.70;101129.64;1770631;81;21290;-89
2022/05/31 03:43:30;;;;;;;4.92;3.35;;;;;;;18.21;76.47;101131.78;1763136;81;21564;-88
2022/05/31 03:46:14;;;;;;;4.45;3.50;;;;;;;19.52;74.67;101130.97;1765231;81;21051;-89
2022/05/31 03:48:59;;;;;;;5.60;3.70;;;;;;;20.73;72.45;101126.90;1771237;80;22600;-92
2022/05/31 03:51:26;;;;;;;3.75;3.42;;;;;;;21.87;70.03;101135.69;1758817;81;21121;-90
2022/05/31 03:54:05;;;;;;;3.77;3.37;;;;;;;22.76;67.12;101138.63;1755022;79;21042;-89
2022/05/31 03:56:32;;;;;;;5.53;3.00;;;;;;;23.53;65.44;101140.20;1755854;81;21035;-93
2022/05/31 03:58:58;;;;;;;5.60;3.20;;;;;;;24.28;63.68;101137.55;1741414;81;21027;-91
2022/05/31 04:01:28;;;;;;;6.55;3.20;;;;;;;25.64;60.33;101142.25;1762537;80;21751;-88
2022/05/31 04:03:55;;;;;;;7.15;2.90;;;;;;;25.64;60.33;101142.25;1725033;83;21049;-90
2022/05/31 04:06:27;;;;;;;5.60;3.08;;;;;;;26.40;59.64;101141.14;1724875;83;21092;-90
2022/05/31 04:09:21;;;;;;;3.22;2.70;;;;;;;27.20;57.91;101140.95;1728132;82;21036;-90
2022/05/31 04:12:00;;;;;;;3.60;2.37;;;;;;;27.87;56.58;101154.56;1734622;81;21154;-92
2022/05/31 04:14:40;;;;;;;6.40;2.60;;;;;;;28.69;54.67;101151.16;1701386;82;21813;-91
2022/05/31 04:17:20;;;;;;;3.42;2.40;;;;;;;29.31;53.03;101151.09;1691182;84;21541;-91
2022/05/31 04:19:47;;;;;;;4.25;3.15;;;;;;;29.87;51.45;101155.65;1707108;83;21085;-88
2022/05/31 04:22:15;;;;;;;1.90;1.75;;;;;;;30.23;50.24;101153.39;1762792;80;21078;-89
2022/05/31 04:24:46;;;;;;;2.05;1.80;;;;;;;30.70;49.13;101156.86;1748721;81;21116;-94
2022/05/31 04:27:19;;;;;;;2.35;1.98;;;;;;;31.10;47.71;101156.13;1756829;80;21820;-94
2022/05/31 04:29:46;;;;;;;3.37;1.82;;;;;;;31.42;46.37;101153.92;1774526;80;21023;-90
2022/05/31 04:32:14;;;;;;;4.08;1.72;;;;;;;31.74;45.63;101156.20;1781100;79;21528;-92
2022/05/31 04:34:41;;;;;;;2.65;1.95;;;;;;;31.94;44.57;101161.86;1776139;80;21057;-88
2022/05/31 04:37:08;;;;;;;2.17;1.50;;;;;;;32.00;43.56;101161.49;1777317;80;21081;-91
2022/05/31 04:39:34;;;;;;;2.00;1.70;;;;;;;31.95;42.81;101159.55;1745133;81;21744;-90
2022/05/31 04:42:01;;;;;;;1.65;1.50;;;;;;;32.13;41.93;101156.23;1776972;80;21148;-87
2022/05/31 04:44:28;;;;;;;1.80;1.70;;;;;;;32.21;41.63;101154.42;1780998;80;21051;-89
2022/05/31 04:47:02;;;;;;;1.70;1.60;;;;;;;32.37;40.41;101163.93;1773911;80;21165;-95
2022/05/31 04:50:24;;;;;;;1.98;1.70;;;;;;;32.48;40.04;101160.94;1752922;81;21036;-90
2022/05/31 04:53:02;;;;;;;1.95;1.60;;;;;;;32.58;39.33;101167.23;1720827;81;21591;-95
2022/05/31 04:55:55;;;;;;;1.62;1.42;;;;;;;33.25;39.21;101167.63;1750871;81;21057;-93
2022/05/31 05:02:33;;;;;;;2.27;1.47;;;;;;;34.32;37.10;101159.70;1783884;80;20999;-91
2022/05/31 05:05:00;;;;;;;1.52;1.30;;;;;;;34.87;36.20;101163.19;1782761;78;21106;-91
2022/05/31 05:07:30;;;;;;;2.62;1.70;;;;;;;35.13;35.17;101163.19;1778752;80;22994;-94
2022/05/31 05:10:17;;;;;;;;;;;;;;;;;;;;;
2022/05/31 05:12:54;;;;;;;1.55;1.45;;;;;;;35.24;33.97;101161.95;1707880;82;21070;-91
2022/05/31 05:15:46;;;;;;;2.22;1.50;;;;;;;34.50;32.97;101161.66;1782988;80;21030;-91
2022/05/31 05:19:14;;;;;;;6.00;1.85;;;;;;;33.69;33.63;101162.52;1785899;80;20943;-95
2022/05/31 05:21:53;;;;;;;1.92;1.45;;;;;;;32.99;32.54;101167.39;1760800;80;21779;-91
2022/05/31 05:24:30;;;;;;;3.02;1.60;;;;;;;32.60;33.93;101158.47;1747621;81;21104;-90
2022/05/31 05:26:57;;;;;;;1.70;1.52;;;;;;;33.17;32.84;101162.66;1752403;80;21043;-92
2022/05/31 05:32:11;;;;;;;2.70;1.87;;;;;;;33.49;32.84;101153.77;1808895;79;21022;-92
2022/05/31 05:34:41;;;;;;;3.87;1.67;;;;;;;34.30;32.30;101159.43;1753733;80;23267;-91
2022/05/31 05:37:47;;;;;;;4.50;1.85;;;;;;;34.54;31.56;101156.83;1732674;82;21058;-93
2022/05/31 05:40:50;;;;;;;3.12;2.05;;;;;;;33.14;30.19;101158.76;1741975;82;21010;-92
2022/05/31 05:43:17;;;;;;;2.57;2.00;;;;;;;30.17;30.59;101160.02;1735822;81;21259;-91
2022/05/31 05:46:33;;;;;;;2.22;2.02;;;;;;;27.57;31.85;101167.47;1731384;82;21067;-93
2022/05/31 05:49:21;;;;;;;3.75;2.40;;;;;;;25.99;32.95;101158.66;1742906;82;21771;-92
2022/05/31 05:52:07;;;;;;;2.37;2.17;;;;;;;24.32;34.49;101159.41;1725970;81;21630;-89
2022/05/31 06:03:15;;;;;;;3.20;2.85;;;;;;;20.91;38.30;101169.94;1782233;80;21066;-93
2022/05/31 06:09:27;;;;;;;5.60;3.60;;;;;;;19.43;40.54;101173.28;1783485;80;21046;-93
2022/05/31 06:12:17;;;;;;;3.45;3.15;;;;;;;18.90;41.77;101175.71;1784609;80;21023;-93
2022/05/31 06:15:30;;;;;;;4.22;3.83;;;;;;;18.55;42.48;101177.07;1780342;80;21066;-93
2022/05/31 06:18:27;;;;;;;6.00;4.00;;;;;;;18.29;43.18;101172.63;1779406;80;21042;-93
2022/05/31 06:21:28;;;;;;;4.40;3.85;;;;;;;18.10;43.92;101174.41;1778156;79;21789;-91
2022/05/31 06:23:55;;;;;;;6.08;3.72;;;;;;;17.91;44.73;101174.83;1778829;80;21011;-91
2022/05/31 06:26:43;;;;;;;4.05;3.62;;;;;;;17.99;45.40;101176.17;1779251;80;21074;-92
2022/05/31 06:29:52;;;;;;;5.03;3.08;;;;;;;18.00;45.44;101174.84;1779007;80;21006;-90
2022/05/31 06:33:11;;;;;;;6.78;3.72;;;;;;;18.03;45.60;101176.16;1779139;80;21042;-94
2022/05/31 06:35:46;;;;;;;4.22;3.45;;;;;;;17.91;45.86;101174.83;1778325;80;21890;-90
2022/05/31 06:38:29;;;;;;;4.35;3.70;;;;;;;17.72;46.36;101175.20;1741819;82;21636;-91
2022/05/31 06:41:08;;;;;;;4.22;2.95;;;;;;;17.71;46.77;101169.88;1741540;81;21054;-91
2022/05/31 06:47:37;;;;;;;5.00;3.55;;;;;;;17.67;47.05;101181.83;1741740;82;21036;-93
2022/05/31 06:57:20;;;;;;;4.45;3.40;;;;;;;17.11;48.39;101190.48;1741838;82;21593;-92
2022/05/31 07:00:57;;;;;;;4.22;3.15;;;;;;;17.00;48.64;101193.53;1741760;82;21095;-92
2022/05/31 07:07:52;;;;;;;3.33;3.02;;;;;;;16.78;49.65;101201.36;1752719;81;21728;-91
2022/05/31 07:14:19;;;;;;;5.15;3.22;;;;;;;17.40;50.33;101195.95;1752757;80;21078;-93
2022/05/31 07:17:02;;;;;;;2.90;2.58;;;;;;;17.79;49.75;101201.38;1752819;81;21031;-92
2022/05/31 07:23:28;;;;;;;3.58;3.00;;;;;;;18.00;49.61;101204.56;1753121;80;21089;-91
2022/05/31 07:26:50;;;;;;;5.67;3.90;;;;;;;18.21;49.51;101209.05;1753008;81;21042;-90
2022/05/31 07:29:18;;;;;;;3.27;2.95;;;;;;;18.21;49.30;101213.05;1752859;81;21026;-91
2022/05/31 07:31:45;;;;;;;3.20;2.70;;;;;;;18.08;49.30;101212.14;1750370;81;21046;-90
2022/05/31 07:34:24;;;;;;;;;;;;;;;;;;;;;
2022/05/31 07:36:53;;;;;;;3.92;2.62;;;;;;;17.77;49.13;101209.36;1707331;83;21536;-90
2022/05/31 07:39:25;;;;;;;3.05;2.77;;;;;;;17.53;49.32;101216.86;1716602;83;21054;-90
2022/05/31 07:42:12;;;;;;;5.33;2.90;;;;;;;17.30;49.58;101214.08;1716871;83;21098;-92
2022/05/31 07:44:39;;;;;;;2.95;2.65;;;;;;;17.21;50.19;101223.34;1712153;83;21039;-92
2022/05/31 07:54:47;;;;;;;3.50;2.90;;;;;;;17.10;50.59;101225.97;1810836;79;21074;-96
2022/05/31 08:01:07;;;;;;;4.47;2.55;;;;;;;17.54;50.83;101237.25;1810995;79;21232;-90
2022/05/31 08:03:58;;;;;;;5.75;2.60;;;;;;;17.76;50.63;101227.58;1758374;80;21046;-91
2022/05/31 08:06:47;;;;;;;5.62;2.20;;;;;;;18.03;49.88;101235.21;1781320;80;21103;-92
2022/05/31 08:09:14;;;;;;;1.67;1.57;;;;;;;18.01;49.57;101241.86;1741645;82;21083;-89
2022/05/31 08:11:41;;;;;;;2.90;1.87;;;;;;;17.93;49.59;101243.63;1783965;80;21027;-92
2022/05/31 08:14:07;;;;;;;2.90;2.25;;;;;;;17.86;49.63;101229.84;1742860;81;21040;-89
2022/05/31 08:20:10;;;;;;;3.98;1.80;;;;;;;17.94;49.34;101249.84;1789494;79;21081;-92
2022/05/31 08:22:37;;;;;;;4.30;1.90;;;;;;;17.86;49.66;101245.38;1786289;79;21014;-91
2022/05/31 08:25:10;;;;;;;2.65;1.82;;;;;;;17.96;49.70;101244.07;1764590;80;21053;-88
2022/05/31 08:27:37;;;;;;;2.85;1.90;;;;;;;18.01;49.45;101240.53;1733905;80;21062;-92
2022/05/31 08:30:05;;;;;;;4.55;3.20;;;;;;;17.98;49.19;101243.21;1785211;80;21014;-91
2022/05/31 08:32:36;;;;;;;3.37;2.35;;;;;;;17.95;49.03;101242.31;1784901;80;22920;-88
2022/05/31 08:35:07;;;;;;;1.62;1.30;;;;;;;17.85;48.91;101236.95;1775224;80;21044;-92
2022/05/31 08:37:34;;;;;;;1.87;1.42;;;;;;;17.69;48.83;101237.75;1761068;78;21066;-93
2022/05/31 08:40:07;;;;;;;1.65;1.30;;;;;;;17.63;48.94;101241.73;1775731;80;21064;-93
2022/05/31 08:42:45;;;;;;;1.22;1.10;;;;;;;17.57;48.95;101234.61;1786994;80;21061;-92
2022/05/31 08:45:33;;;;;;;2.05;1.80;;;;;;;17.48;49.00;101239.44;1785619;78;22631;-92
2022/05/31 08:48:25;;;;;;;5.62;3.27;;;;;;;17.42;49.04;101236.77;1760592;78;21050;-90
2022/05/31 08:56:56;;;;;;;;;;;;;;;17.46;49.38;101241.66;1699687;83;21106;-92
2022/05/31 08:59:12;;;;;;;2.37;1.57;;;;;;;17.96;49.16;101241.41;1714667;83;21877;-92
2022/05/31 09:01:47;;;;;;;2.02;1.35;;;;;;;18.12;49.11;101240.56;1698663;83;21121;-92
2022/05/31 09:04:39;;;;;;;2.02;1.37;;;;;;;18.24;48.99;101246.34;1708247;83;21112;-91
2022/05/31 09:07:20;;;;;;;1.32;1.00;;;;;;;18.38;48.94;101245.92;1701732;83;21606;-88
2022/05/31 09:10:01;;;;;;;1.22;0.80;;;;;;;18.61;48.86;101243.70;1722576;83;21242;-88
2022/05/31 09:12:51;;;;;;;3.42;1.15;;;;;;;18.72;48.20;101246.38;1715776;83;21786;-92
2022/05/31 09:19:12;;;;;;;2.27;1.15;;;;;;;19.08;48.25;101240.12;1679527;84;21091;-91
2022/05/31 09:21:45;;;;;;;4.45;1.07;;;;;;;19.36;47.88;101232.92;1676293;85;21086;-88
2022/05/31 09:24:15;;;;;;;3.90;1.00;;;;;;;19.57;47.91;101235.94;1675867;85;21094;-92
2022/05/31 09:26:56;;;;;;;2.30;1.00;;;;;;;19.80;47.59;101233.64;1680466;83;22007;-92
2022/05/31 09:29:33;;;;;;;2.10;1.00;;;;;;;19.93;47.11;101235.80;1682378;83;21056;-88
2022/05/31 09:32:29;;;;;;;1.98;0.88;;;;;;;20.05;46.49;101231.73;1767584;80;21050;-88
2022/05/31 09:35:16;;;;;;;0.70;0.70;;;;;;;20.24;45.99;101233.83;1777411;80;21078;-94
2022/05/31 09:38:00;;;;;;;1.07;0.70;;;;;;;20.39;45.63;101232.83;1782019;79;21003;-93
2022/05/31 09:40:46;;;;;;;1.05;0.80;;;;;;;20.31;45.45;101228.88;1774214;79;21754;-90
2022/05/31 09:43:51;;;;;;;3.12;0.90;;;;;;;20.38;45.39;101231.95;1751010;81;21063;-91
2022/05/31 09:46:44;;;;;;;3.22;1.30;;;;;;;20.48;45.03;101231.41;1750462;81;21094;-88
2022/05/31 09:49:36;;;;;;;3.63;1.43;;;;;;;20.59;44.80;101222.85;1742832;80;21077;-88
2022/05/31 09:52:09;;;;;;;2.98;1.45;;;;;;;20.61;44.68;101217.95;1743487;80;21098;-93
2022/05/31 09:58:20;;;;;;;1.80;1.12;;;;;;;20.88;43.75;101222.17;1754574;80;21070;-89
2022/05/31 10:01:27;;;;;;;1.47;1.02;;;;;;;21.13;43.85;101185.30;1763108;80;21067;-89
2022/05/31 10:04:15;;;;;;;6.45;1.52;;;;;;;21.62;43.22;101218.66;1750642;81;21018;-94
2022/05/31 10:07:03;;;;;;;2.37;1.45;;;;;;;21.62;43.22;101218.66;1775552;80;21054;-89
2022/05/31 10:09:37;;;;;;;1.67;1.10;;;;;;;21.75;43.05;101197.48;1779320;80;21775;-90
2022/05/31 10:12:14;;;;;;;1.65;1.12;;;;;;;22.09;42.56;101202.34;1771219;80;21908;-93
2022/05/31 10:14:45;;;;;;;2.42;1.42;;;;;;;22.31;42.04;101222.58;1724067;81;21007;-91
2022/05/31 10:17:37;;;;;;;3.02;1.35;;;;;;;22.29;41.54;101225.73;1757019;80;22215;-89
2022/05/31 10:20:22;;;;;;;1.75;1.17;;;;;;;22.31;41.57;101223.92;1736810;79;21585;-89
2022/05/31 10:22:53;;;;;;;2.67;1.70;;;;;;;22.49;41.43;101224.55;1730903;82;22657;-89
2022/05/31 10:25:52;;;;;;;4.95;2.20;;;;;;;22.79;41.58;101232.98;1755538;80;21050;-90
2022/05/31 10:28:47;;;;;;;2.87;1.65;;;;;;;22.98;41.08;101222.78;1677861;85;21079;-91
2022/05/31 10:31:38;;;;;;;3.27;1.90;;;;;;;22.91;40.67;101224.22;1711485;81;21055;-90
2022/05/31 10:34:28;;;;;;;2.60;1.57;;;;;;;22.80;40.62;101221.31;1724727;81;21030;-89
2022/05/31 10:36:56;;;;;;;3.12;2.08;;;;;;;22.68;40.26;101220.63;1682444;83;21783;-89
2022/05/31 10:39:26;;;;;;;2.20;1.60;;;;;;;22.58;40.36;101226.16;1748595;81;21025;-92
2022/05/31 10:41:54;;;;;;;3.72;1.60;;;;;;;22.65;40.20;101222.00;1730145;82;21083;-92
2022/05/31 10:44:41;;;;;;;3.25;1.75;;;;;;;22.59;39.88;101230.17;1729594;81;21087;-93
2022/05/31 10:47:15;;;;;;;6.37;1.85;;;;;;;22.45;39.65;101225.05;1737132;81;21043;-89
2022/05/31 10:49:43;;;;;;;2.27;1.52;;;;;;;22.19;39.60;101228.12;1728648;82;21781;-89
2022/05/31 10:52:48;;;;;;;3.72;1.70;;;;;;;21.94;40.05;101223.13;1729167;81;21031;-92
2022/05/31 10:55:38;;;;;;;3.27;1.95;;;;;;;21.91;40.20;101229.86;1734828;82;21057;-93
2022/05/31 10:58:41;;;;;;;3.98;1.52;;;;;;;21.97;40.28;101227.55;1736662;81;21248;-89
2022/05/31 11:01:34;;;;;;;1.77;1.17;;;;;;;21.97;40.28;101227.55;1727185;81;21124;-88
2022/05/31 11:04:21;;;;;;;3.75;1.72;;;;;;;22.05;40.50;101227.44;1735038;81;21990;-92
2022/05/31 11:07:21;;;;;;;3.20;1.55;;;;;;;22.05;40.18;101224.75;1749277;81;21050;-89
2022/05/31 11:13:23;;;;;;;7.20;2.25;;;;;;;22.13;40.38;101233.13;1731678;81;21098;-95
2022/05/31 11:16:07;;;;;;;6.72;2.02;;;;;;;22.40;40.19;101233.63;1695581;83;21074;-92
2022/05/31 11:18:54;;;;;;;4.78;1.80;;;;;;;22.62;39.99;101242.20;1729661;82;22682;-89
2022/05/31 11:21:51;;;;;;;3.95;1.65;;;;;;;22.65;40.03;101244.81;1774806;80;21007;-94
2022/05/31 11:24:38;;;;;;;3.25;1.80;;;;;;;22.78;39.84;101242.80;1753666;80;21062;-91
2022/05/31 11:27:28;;;;;;;3.83;1.50;;;;;;;22.75;39.43;101241.97;1774020;80;21210;-89
2022/05/31 11:30:21;;;;;;;3.72;1.50;;;;;;;22.73;39.33;101235.31;1758942;80;21052;-92
2022/05/31 11:33:29;;;;;;;1.47;1.30;;;;;;;22.69;39.45;101244.31;1757639;80;21738;-86
2022/05/31 11:36:34;;;;;;;2.95;1.12;;;;;;;22.58;39.24;101243.17;1705318;82;21560;-87
2022/05/31 11:40:07;;;;;;;3.10;1.10;;;;;;;22.59;38.87;101242.24;1747095;82;21129;-92
2022/05/31 11:43:16;;;;;;;1.40;1.12;;;;;;;22.69;38.61;101241.62;1782375;80;21046;-88
2022/05/31 11:46:10;;;;;;;2.02;1.52;;;;;;;22.71;38.31;101252.78;1741733;80;21034;-88
2022/05/31 11:49:03;;;;;;;3.52;1.07;;;;;;;22.68;38.25;101250.61;1758497;80;21779;-89
2022/05/31 11:52:08;;;;;;;1.67;1.12;;;;;;;22.64;38.44;101247.09;1767933;80;21187;-86
2022/05/31 11:58:20;;;;;;;2.02;1.40;;;;;;;22.74;38.64;101248.27;1750190;80;21233;-90
2022/05/31 12:01:11;;;;;;;1.72;1.57;;;;;;;22.51;38.40;101246.40;1763064;80;21749;-92
2022/05/31 12:04:17;;;;;;;2.25;1.32;;;;;;;22.37;38.54;101247.07;1773207;80;22565;-94
2022/05/31 12:07:09;;;;;;;2.98;1.40;;;;;;;22.32;38.92;101242.26;1747717;82;21108;-94
2022/05/31 12:09:46;;;;;;;5.90;1.37;;;;;;;22.41;39.30;101246.57;1684302;83;21086;-90
2022/05/31 12:12:20;;;;;;;1.92;1.05;;;;;;;22.51;39.19;101243.72;1714463;83;21126;-92
2022/05/31 12:15:21;;;;;;;1.40;0.90;;;;;;;22.58;38.95;101247.20;1719399;83;21436;-93
2022/05/31 12:18:24;;;;;;;2.83;1.20;;;;;;;22.59;38.80;101241.37;1719628;81;22179;-89
2022/05/31 12:21:03;;;;;;;2.65;0.90;;;;;;;22.60;38.88;101244.46;1737551;81;21026;-89
2022/05/31 12:23:57;;;;;;;1.85;1.20;;;;;;;22.63;38.91;101243.08;1718516;81;21052;-93
2022/05/31 12:27:06;;;;;;;1.70;1.02;;;;;;;22.73;39.08;101243.80;1688851;84;21584;-92
2022/05/31 12:29:41;;;;;;;5.50;0.98;;;;;;;22.97;38.79;101244.70;1688400;84;21078;-88
2022/05/31 12:32:40;;;;;;;3.37;1.15;;;;;;;23.15;38.83;101245.32;1688449;84;22804;-92
2022/05/31 12:35:11;;;;;;;5.20;1.27;;;;;;;23.22;38.35;101244.30;1688697;84;21607;-93
2022/05/31 12:38:06;;;;;;;2.77;0.70;;;;;;;23.17;38.21;101242.14;1698590;83;21603;-92
2022/05/31 12:40:38;;;;;;;1.32;0.60;;;;;;;23.15;37.96;101243.98;1660649;85;21218;-92
2022/05/31 12:43:12;;;;;;;2.15;0.70;;;;;;;23.07;38.02;101240.97;1705578;83;21062;-89
2022/05/31 12:45:47;;;;;;;;;;;;;;;23.00;37.81;101233.91;1721750;82;21763;-90
2022/05/31 12:48:24;;;;;;;1.90;0.70;;;;;;;22.94;38.10;101240.75;1771074;81;20915;-92
2022/05/31 12:51:32;;;;;;;3.60;1.15;;;;;;;23.04;38.25;101234.31;1755832;81;21082;-92
2022/05/31 12:54:12;;;;;;;0.60;0.55;;;;;;;23.25;38.40;101233.00;1756303;81;21121;-93
2022/05/31 12:56:57;;;;;;;2.60;0.68;;;;;;;23.57;37.85;101233.27;1756596;81;21074;-93
2022/05/31 12:59:40;;;;;;;1.30;0.60;;;;;;;23.59;37.31;101229.61;1771403;81;21789;-92
2022/05/31 13:02:46;;;;;;;0.95;0.65;;;;;;;23.38;37.02;101227.39;1734866;80;21053;-93
2022/05/31 13:05:33;;;;;;;0.78;0.57;;;;;;;23.13;36.58;101227.89;1757504;79;21088;-90
2022/05/31 13:08:16;;;;;;;2.33;0.70;;;;;;;22.73;36.32;101237.09;1741894;81;21033;-88
2022/05/31 13:19:37;;;;;;;2.42;0.55;;;;;;;22.45;37.00;101234.91;1770742;80;21151;-91
2022/05/31 13:22:19;;;;;;;0.65;0.50;;;;;;;22.54;37.28;101236.06;1795183;78;21022;-92
2022/05/31 13:25:02;;;;;;;0.72;0.70;;;;;;;22.58;37.05;101239.58;1822291;78;21049;-88
2022/05/31 13:27:37;;;;;;;1.17;0.70;;;;;;;22.58;37.18;101236.90;1811718;78;22646;-90
2022/05/31 13:30:14;;;;;;;2.60;0.60;;;;;;;22.65;37.39;101234.08;1768909;79;21071;-89
2022/05/31 13:32:59;;;;;;;1.90;1.00;;;;;;;22.73;37.36;101234.41;1758266;81;21513;-91
2022/05/31 13:39:29;;;;;;;2.00;0.95;;;;;;;22.70;36.78;101236.70;1768705;80;21086;-93
2022/05/31 13:42:01;;;;;;;1.72;1.12;;;;;;;22.51;36.85;101245.06;1781502;80;21903;-90
2022/05/31 13:44:36;;;;;;;;;;;;;;;22.43;37.19;101243.41;1729699;81;21065;-92
2022/05/31 13:47:24;;;;;;;4.08;1.07;;;;;;;22.49;37.19;101247.35;1758194;80;20194;-92
2022/05/31 13:58:02;;;;;;;4.47;2.15;;;;;;;22.03;37.49;101248.02;1765235;81;21083;-96
2022/05/31 14:00:47;;;;;;;4.45;2.60;;;;;;;21.88;37.44;101247.31;1698678;81;21005;-93
2022/05/31 14:03:23;;;;;;;2.55;1.42;;;;;;;21.80;37.57;101251.03;1758065;81;21096;-90
2022/05/31 14:09:55;;;;;;;5.53;3.47;;;;;;;21.76;37.87;101254.20;1758373;81;21010;-92
2022/05/31 14:12:24;;;;;;;6.87;3.67;;;;;;;21.47;38.39;101251.88;1771392;80;21803;-90
2022/05/31 14:14:52;;;;;;;6.33;3.62;;;;;;;20.99;39.52;101265.77;1763996;80;21105;-90
2022/05/31 14:17:41;;;;;;;9.60;4.22;;;;;;;20.21;41.28;101241.85;1769659;80;21034;-91
2022/05/31 14:20:31;;;;;;;13.60;4.30;;;;;;;20.21;41.28;101241.85;1783631;80;21058;-90